Time,TemperatureF,DewpointF,PressureIn,WindDirection,WindDirectionDegrees,WindSpeedMPH,WindSpeedGustMPH,Humidity,HourlyPrecipIn,Conditions,Clouds,dailyrainin,SoftwareType,DateUTC
2013-02-04 00:03:00,18.5,17.1,29.82,NW,315,2.2,-999.0,94,-99.99,,,0.00,Acu-Link.com,2013-02-04 07:03:00,
2013-02-04 00:19:00,17.8,16.8,29.81,South,180,0.0,-999.0,96,-99.99,,,0.00,Acu-Link.com,2013-02-04 07:19:00,
2013-02-04 00:34:00,18.3,17.1,29.81,South,180,0.0,-999.0,95,-99.99,,,0.00,Acu-Link.com,2013-02-04 07:34:00,
2013-02-04 00:49:00,18.3,17.1,29.81,South,180,0.0,-999.0,95,-99.99,,,0.00,Acu-Link.com,2013-02-04 07:49:00,
2013-02-04 01:04:00,18.3,17.1,29.82,South,180,0.0,-999.0,95,-99.99,,,0.00,Acu-Link.com,2013-02-04 08:04:00,
2013-02-04 01:19:00,18.3,17.1,29.83,South,180,0.0,-999.0,95,-99.99,,,0.00,Acu-Link.com,2013-02-04 08:19:00,
2013-02-04 01:35:00,18.3,17.1,29.82,South,180,0.0,-999.0,95,-99.99,,,0.00,Acu-Link.com,2013-02-04 08:35:00,
2013-02-04 01:50:00,18.3,17.1,29.82,South,180,0.0,-999.0,95,-99.99,,,0.00,Acu-Link.com,2013-02-04 08:50:00,
2013-02-04 02:05:00,18.3,17.1,29.81,South,180,0.0,-999.0,95,-99.99,,,0.00,Acu-Link.com,2013-02-04 09:05:00,
2013-02-04 02:20:00,18.3,17.1,29.81,South,180,0.0,-999.0,95,-99.99,,,0.00,Acu-Link.com,2013-02-04 09:20:00,
2013-02-04 02:35:00,18.3,17.1,29.81,South,180,0.0,-999.0,95,-99.99,,,0.00,Acu-Link.com,2013-02-04 09:35:00,
2013-02-04 02:50:00,18.3,17.1,29.81,South,180,0.0,-999.0,95,-99.99,,,0.00,Acu-Link.com,2013-02-04 09:50:00,
2013-02-04 03:06:00,18.3,17.1,29.80,South,180,0.0,-999.0,95,-99.99,,,0.00,Acu-Link.com,2013-02-04 10:06:00,
2013-02-04 03:21:00,18.3,17.1,29.79,South,180,0.0,-999.0,95,-99.99,,,0.00,Acu-Link.com,2013-02-04 10:21:00,
2013-02-04 03:36:00,18.3,17.1,29.79,South,180,0.0,-999.0,95,-99.99,,,0.00,Acu-Link.com,2013-02-04 10:36:00,
2013-02-04 03:51:00,20.8,19.6,29.79,SSW,202,4.7,-999.0,95,-99.99,,,0.00,Acu-Link.com,2013-02-04 10:51:00,
2013-02-04 04:06:00,20.8,19.6,29.79,SSW,202,6.3,-999.0,95,-99.99,,,0.00,Acu-Link.com,2013-02-04 11:06:00,
2013-02-04 04:22:00,20.8,19.6,29.79,SSW,202,7.4,-999.0,95,-99.99,,,0.00,Acu-Link.com,2013-02-04 11:22:00,
2013-02-04 04:37:00,20.8,19.6,29.79,SSW,202,6.7,-999.0,95,-99.99,,,0.00,Acu-Link.com,2013-02-04 11:37:00,
2013-02-04 04:52:00,20.8,19.6,29.79,SSW,202,6.7,-999.0,95,-99.99,,,0.00,Acu-Link.com,2013-02-04 11:52:00,
2013-02-04 05:07:00,20.8,19.6,29.79,SSW,202,6.7,-999.0,95,-99.99,,,0.00,Acu-Link.com,2013-02-04 12:07:00,
2013-02-04 05:22:00,20.8,19.6,29.78,SSW,202,6.7,-999.0,95,-99.99,,,0.00,Acu-Link.com,2013-02-04 12:22:00,
2013-02-04 05:37:00,20.8,19.6,29.78,SSW,202,6.7,-999.0,95,-99.99,,,0.00,Acu-Link.com,2013-02-04 12:37:00,
2013-02-04 05:52:00,20.8,19.6,29.76,SSW,202,6.7,-999.0,95,-99.99,,,0.00,Acu-Link.com,2013-02-04 12:52:00,
2013-02-04 06:08:00,22.3,21.1,29.75,South,180,4.3,-999.0,95,-99.99,,,0.00,Acu-Link.com,2013-02-04 13:08:00,
2013-02-04 06:23:00,22.3,21.1,29.75,South,180,4.3,-999.0,95,-99.99,,,0.00,Acu-Link.com,2013-02-04 13:23:00,
2013-02-04 06:38:00,22.5,21.2,29.75,South,180,4.3,-999.0,95,-99.99,,,0.00,Acu-Link.com,2013-02-04 13:38:00,
2013-02-04 06:53:00,22.5,21.2,29.73,SSW,202,4.3,-999.0,95,-99.99,,,0.00,Acu-Link.com,2013-02-04 13:53:00,
2013-02-04 07:08:00,22.6,21.7,29.73,SSW,202,6.3,-999.0,96,-99.99,,,0.00,Acu-Link.com,2013-02-04 14:08:00,
2013-02-04 07:24:00,22.8,21.9,29.73,SSW,202,8.9,-999.0,96,-99.99,,,0.00,Acu-Link.com,2013-02-04 14:24:00,
2013-02-04 07:39:00,23.2,22.2,29.72,SW,225,8.3,-999.0,96,-99.99,,,0.00,Acu-Link.com,2013-02-04 14:39:00,
2013-02-04 07:54:00,23.5,22.6,29.71,SSW,202,11.4,-999.0,96,-99.99,,,0.00,Acu-Link.com,2013-02-04 14:54:00,
2013-02-04 08:09:00,23.5,22.6,29.70,SSW,202,14.1,-999.0,96,-99.99,,,0.00,Acu-Link.com,2013-02-04 15:09:00,
2013-02-04 08:24:00,24.4,23.5,29.70,SW,225,15.4,-999.0,96,-99.99,,,0.00,Acu-Link.com,2013-02-04 15:24:00,
2013-02-04 08:39:00,24.8,24.1,29.70,SSW,202,18.1,-999.0,97,-99.99,,,0.00,Acu-Link.com,2013-02-04 15:39:00,
2013-02-04 08:55:00,24.8,24.3,29.70,SSW,202,16.6,-999.0,98,-99.99,,,0.00,Acu-Link.com,2013-02-04 15:55:00,
2013-02-04 09:10:00,25.0,24.5,29.69,SSW,202,17.7,-999.0,98,-99.99,,,0.00,Acu-Link.com,2013-02-04 16:10:00,
2013-02-04 09:25:00,25.9,24.9,29.69,SSW,202,15.4,-999.0,96,-99.99,,,0.00,Acu-Link.com,2013-02-04 16:25:00,
2013-02-04 09:40:00,26.6,25.4,29.68,SW,225,14.5,-999.0,95,-99.99,,,0.00,Acu-Link.com,2013-02-04 16:40:00,
2013-02-04 09:55:00,27.0,25.5,29.67,SSW,202,17.0,-999.0,94,-99.99,,,0.00,Acu-Link.com,2013-02-04 16:55:00,
2013-02-04 10:10:00,27.5,25.7,29.67,SSW,202,16.6,-999.0,93,-99.99,,,0.00,Acu-Link.com,2013-02-04 17:10:00,
2013-02-04 10:26:00,27.5,25.7,29.67,SSW,202,18.1,-999.0,93,-99.99,,,0.00,Acu-Link.com,2013-02-04 17:26:00,
2013-02-04 10:41:00,28.4,26.4,29.66,South,180,15.0,-999.0,92,-99.99,,,0.00,Acu-Link.com,2013-02-04 17:41:00,
2013-02-04 10:56:00,29.8,27.0,29.65,SSW,202,15.0,-999.0,89,-99.99,,,0.00,Acu-Link.com,2013-02-04 17:56:00,
2013-02-04 11:11:00,29.7,26.8,29.64,SSW,202,16.6,-999.0,89,-99.99,,,0.00,Acu-Link.com,2013-02-04 18:11:00,
2013-02-04 11:26:00,30.2,27.4,29.64,SSW,202,16.6,-999.0,89,-99.99,,,0.00,Acu-Link.com,2013-02-04 18:26:00,
2013-02-04 11:41:00,31.1,28.0,29.64,SSW,202,13.0,-999.0,88,-99.99,,,0.00,Acu-Link.com,2013-02-04 18:41:00,
2013-02-04 11:57:00,32.4,28.9,29.62,SSW,202,13.4,-999.0,87,-99.99,,,0.00,Acu-Link.com,2013-02-04 18:57:00,
2013-02-04 12:12:00,33.8,29.5,29.61,SSW,202,14.1,-999.0,84,-99.99,,,0.00,Acu-Link.com,2013-02-04 19:12:00,
2013-02-04 12:27:00,35.1,30.4,29.60,SSW,202,10.3,-999.0,83,-99.99,,,0.00,Acu-Link.com,2013-02-04 19:27:00,
2013-02-04 12:42:00,36.3,31.1,29.59,SW,225,9.8,-999.0,81,-99.99,,,0.00,Acu-Link.com,2013-02-04 19:42:00,
2013-02-04 12:57:00,37.2,31.3,29.58,SW,225,16.1,-999.0,79,-99.99,,,0.00,Acu-Link.com,2013-02-04 19:57:00,
2013-02-04 13:12:00,37.0,31.5,29.58,SW,225,13.4,-999.0,80,-99.99,,,0.00,Acu-Link.com,2013-02-04 20:12:00,
2013-02-04 13:28:00,37.2,31.6,29.57,WSW,247,11.4,-999.0,80,-99.99,,,0.00,Acu-Link.com,2013-02-04 20:28:00,
2013-02-04 13:43:00,37.6,31.4,29.56,SW,225,15.4,-999.0,78,-99.99,,,0.00,Acu-Link.com,2013-02-04 20:43:00,
2013-02-04 13:58:00,38.5,31.6,29.56,WSW,247,11.0,-999.0,76,-99.99,,,0.00,Acu-Link.com,2013-02-04 20:58:00,
2013-02-04 14:13:00,39.0,31.4,29.56,SW,225,11.4,-999.0,74,-99.99,,,0.00,Acu-Link.com,2013-02-04 21:13:00,
2013-02-04 14:29:00,39.0,31.1,29.57,West,270,15.4,-999.0,73,-99.99,,,0.00,Acu-Link.com,2013-02-04 21:29:00,
2013-02-04 14:44:00,39.0,31.4,29.56,WSW,247,15.4,-999.0,74,-99.99,,,0.00,Acu-Link.com,2013-02-04 21:44:00,
2013-02-04 14:59:00,38.7,30.8,29.56,West,270,11.9,-999.0,73,-99.99,,,0.00,Acu-Link.com,2013-02-04 21:59:00,
2013-02-04 15:14:00,38.8,30.9,29.57,West,270,17.7,-999.0,73,-99.99,,,0.00,Acu-Link.com,2013-02-04 22:14:00,
2013-02-04 15:30:00,38.7,31.1,29.56,WNW,292,19.7,-999.0,74,-99.99,,,0.00,Acu-Link.com,2013-02-04 22:30:00,
2013-02-04 15:45:00,38.5,30.9,29.56,West,270,18.6,-999.0,74,-99.99,,,0.00,Acu-Link.com,2013-02-04 22:45:00,
2013-02-04 16:00:00,37.9,30.7,29.56,West,270,17.0,-999.0,75,-99.99,,,0.00,Acu-Link.com,2013-02-04 23:00:00,
2013-02-04 16:15:00,37.4,30.5,29.55,NW,315,15.4,-999.0,76,-99.99,,,0.00,Acu-Link.com,2013-02-04 23:15:00,
2013-02-04 16:30:00,37.0,30.5,29.55,WNW,292,15.0,-999.0,77,-99.99,,,0.00,Acu-Link.com,2013-02-04 23:30:00,
2013-02-04 16:46:00,36.7,30.5,29.56,West,270,15.0,-999.0,78,-99.99,,,0.00,Acu-Link.com,2013-02-04 23:46:00,
2013-02-04 17:01:00,36.1,30.0,29.56,West,270,14.1,-999.0,78,-99.99,,,0.00,Acu-Link.com,2013-02-05 00:01:00,
2013-02-04 17:16:00,35.4,29.9,29.57,West,270,14.1,-999.0,80,-99.99,,,0.00,Acu-Link.com,2013-02-05 00:16:00,
2013-02-04 17:31:00,35.4,29.9,29.57,WNW,292,13.0,-999.0,80,-99.99,,,0.00,Acu-Link.com,2013-02-05 00:31:00,
2013-02-04 17:46:00,34.5,29.3,29.57,West,270,12.5,-999.0,81,-99.99,,,0.00,Acu-Link.com,2013-02-05 00:46:00,
2013-02-04 18:02:00,33.6,29.0,29.57,WSW,247,11.0,-999.0,83,-99.99,,,0.00,Acu-Link.com,2013-02-05 01:02:00,
2013-02-04 18:17:00,34.2,29.3,29.57,West,270,15.4,-999.0,82,-99.99,,,0.00,Acu-Link.com,2013-02-05 01:17:00,
2013-02-04 18:32:00,33.8,28.9,29.57,WNW,292,13.0,-999.0,82,-99.99,,,0.00,Acu-Link.com,2013-02-05 01:32:00,
2013-02-04 18:47:00,34.0,29.4,29.57,SSW,202,9.8,-999.0,83,-99.99,,,0.00,Acu-Link.com,2013-02-05 01:47:00,
2013-02-04 19:02:00,34.2,29.5,29.57,NW,315,13.4,-999.0,83,-99.99,,,0.00,Acu-Link.com,2013-02-05 02:02:00,
2013-02-04 19:17:00,34.5,29.9,29.57,West,270,15.4,-999.0,83,-99.99,,,0.00,Acu-Link.com,2013-02-05 02:17:00,
2013-02-04 19:32:00,34.9,30.0,29.57,West,270,15.4,-999.0,82,-99.99,,,0.00,Acu-Link.com,2013-02-05 02:32:00,
2013-02-04 19:48:00,34.9,30.0,29.57,NW,315,13.0,-999.0,82,-99.99,,,0.00,Acu-Link.com,2013-02-05 02:48:00,
2013-02-04 20:03:00,35.8,30.2,29.57,WSW,247,15.0,-999.0,80,-99.99,,,0.00,Acu-Link.com,2013-02-05 03:03:00,
2013-02-04 20:18:00,35.6,30.4,29.57,WNW,292,14.5,-999.0,81,-99.99,,,0.00,Acu-Link.com,2013-02-05 03:18:00,
2013-02-04 20:33:00,35.6,30.4,29.58,WNW,292,18.6,-999.0,81,-99.99,,,0.00,Acu-Link.com,2013-02-05 03:33:00,
2013-02-04 20:48:00,36.1,30.3,29.59,West,270,18.6,-999.0,79,-99.99,,,0.00,Acu-Link.com,2013-02-05 03:48:00,
2013-02-04 21:03:00,36.1,30.3,29.59,West,270,18.6,-999.0,79,-99.99,,,0.00,Acu-Link.com,2013-02-05 04:03:00,
2013-02-04 21:18:00,36.1,30.3,29.60,West,270,18.6,-999.0,79,-99.99,,,0.00,Acu-Link.com,2013-02-05 04:18:00,
2013-02-04 21:33:00,36.1,30.3,29.60,West,270,18.6,-999.0,79,-99.99,,,0.00,Acu-Link.com,2013-02-05 04:33:00,
2013-02-04 21:49:00,36.1,30.3,29.60,West,270,18.6,-999.0,79,-99.99,,,0.00,Acu-Link.com,2013-02-05 04:49:00,
2013-02-04 22:04:00,36.1,30.3,29.61,West,270,18.6,-999.0,79,-99.99,,,0.00,Acu-Link.com,2013-02-05 05:04:00,
2013-02-04 22:19:00,34.0,29.4,29.61,West,270,14.1,-999.0,83,-99.99,,,0.00,Acu-Link.com,2013-02-05 05:19:00,
2013-02-04 22:34:00,34.0,29.4,29.62,West,270,14.1,-999.0,83,-99.99,,,0.00,Acu-Link.com,2013-02-05 05:34:00,
2013-02-04 22:49:00,33.3,29.0,29.63,WNW,292,16.1,-999.0,84,-99.99,,,0.00,Acu-Link.com,2013-02-05 05:49:00,
2013-02-04 23:04:00,33.3,29.0,29.64,WNW,292,15.0,-999.0,84,-99.99,,,0.00,Acu-Link.com,2013-02-05 06:04:00,
2013-02-04 23:19:00,32.5,28.5,29.64,West,270,18.6,-999.0,85,-99.99,,,0.00,Acu-Link.com,2013-02-05 06:19:00,
2013-02-04 23:34:00,31.6,28.2,29.63,West,270,16.6,-999.0,87,-99.99,,,0.00,Acu-Link.com,2013-02-05 06:34:00,
2013-02-04 23:49:00,31.6,28.2,29.66,WNW,292,17.7,-999.0,87,-99.99,,,0.00,Acu-Link.com,2013-02-05 06:49:00,